createdAt,value
2022-11-07T00:02:40.855Z,100.00
2022-11-07T00:06:42.627Z,100.00
2022-11-07T00:10:44.317Z,100.00
2022-11-07T00:14:45.992Z,100.00
2022-11-07T00:18:47.713Z,100.00
2022-11-07T00:22:49.418Z,100.00
2022-11-07T00:26:51.196Z,100.00
2022-11-07T00:30:52.929Z,100.00
2022-11-07T00:34:54.661Z,100.00
2022-11-07T00:38:56.763Z,100.00
2022-11-07T00:42:58.433Z,100.00
2022-11-07T00:47:00.204Z,100.00
2022-11-07T00:51:16.429Z,100.00
2022-11-07T00:55:18.087Z,100.00
2022-11-07T00:59:19.843Z,100.00
2022-11-07T01:03:40.098Z,100.00
2022-11-07T14:00:21.262Z,97.18
2022-11-07T14:04:23.758Z,98.23
2022-11-07T14:08:28.351Z,99.69
2022-11-07T14:12:30.244Z,100.00
2022-11-07T14:16:32.063Z,100.00
2022-11-07T14:20:33.830Z,100.00
2022-11-07T14:24:36.195Z,100.00
2022-11-07T14:28:40.279Z,100.00
2022-11-07T14:32:54.031Z,100.00
2022-11-07T14:37:01.520Z,100.00
2022-11-07T14:41:03.816Z,100.00
2022-11-07T14:45:07.360Z,100.00
2022-11-07T14:49:28.767Z,100.00
2022-11-07T14:53:32.594Z,100.00
2022-11-07T14:57:37.608Z,100.00
2022-11-07T15:01:52.270Z,100.00
2022-11-07T15:05:54.679Z,100.00
2022-11-07T15:09:59.249Z,100.00
2022-11-07T15:14:03.483Z,100.00
2022-11-07T15:18:07.528Z,100.00
2022-11-07T15:22:27.163Z,100.00
2022-11-07T15:26:34.885Z,100.00
2022-11-07T15:30:36.614Z,100.00
2022-11-07T15:35:03.386Z,100.00
2022-11-07T15:39:00.947Z,100.00
2022-11-07T15:43:02.670Z,100.00
2022-11-07T15:47:05.851Z,100.00
2022-11-07T15:51:08.937Z,100.00
2022-11-07T15:55:15.727Z,100.00
2022-11-07T15:59:20.140Z,100.00
2022-11-07T16:03:24.416Z,100.00
2022-11-07T16:07:26.301Z,100.00
2022-11-07T16:11:27.953Z,100.00
2022-11-07T16:15:31.013Z,100.00
2022-11-07T16:19:40.181Z,100.00
2022-11-07T16:23:43.291Z,100.00
2022-11-07T16:27:50.326Z,100.00
2022-11-07T16:31:52.146Z,100.00
2022-11-07T16:35:56.590Z,100.00
2022-11-07T16:39:58.312Z,100.00
2022-11-07T16:44:00.613Z,100.00
2022-11-07T16:48:18.473Z,100.00
2022-11-07T16:52:20.404Z,100.00
2022-11-07T16:56:26.779Z,100.00
2022-11-07T17:00:28.816Z,100.00
2022-11-07T17:04:30.509Z,100.00
2022-11-07T17:08:38.504Z,100.00
2022-11-07T17:12:40.157Z,100.00
2022-11-07T17:16:46.562Z,100.00
2022-11-07T17:20:51.341Z,100.00
2022-11-07T17:24:53.722Z,100.00
2022-11-07T17:28:56.772Z,100.00
2022-11-07T17:32:58.429Z,100.00
2022-11-07T17:37:01.179Z,100.00
2022-11-07T17:41:17.291Z,100.00
2022-11-07T17:45:19.037Z,100.00
2022-11-07T17:49:22.083Z,100.00
2022-11-07T17:53:23.989Z,100.00
2022-11-07T17:57:25.721Z,100.00
2022-11-07T18:01:30.711Z,99.89
2022-11-07T18:05:34.715Z,99.61
2022-11-07T18:09:36.483Z,99.89
2022-11-07T18:13:38.984Z,99.49
2022-11-07T18:17:41.707Z,99.09
2022-11-07T18:21:43.418Z,99.38
2022-11-07T18:25:45.044Z,99.01
2022-11-07T18:29:46.766Z,99.04
2022-11-07T18:33:49.363Z,98.74
2022-11-07T18:37:51.652Z,98.72
2022-11-07T18:41:54.230Z,98.57
2022-11-07T18:45:56.973Z,98.41
2022-11-07T18:49:58.765Z,98.67
2022-11-07T18:54:02.889Z,98.93
2022-11-07T18:58:04.595Z,98.70
2022-11-07T19:02:06.447Z,98.81
2022-11-07T19:06:11.014Z,98.92
2022-11-07T19:10:13.547Z,99.04
2022-11-07T19:14:15.530Z,98.50
2022-11-07T19:18:17.914Z,98.41
2022-11-07T19:22:19.885Z,98.68
2022-11-07T19:26:21.694Z,98.31
2022-11-07T19:30:24.770Z,98.33
2022-11-07T19:34:26.560Z,97.79
2022-11-07T19:38:30.552Z,98.19
2022-11-07T19:42:32.287Z,97.76
2022-11-07T19:46:34.010Z,98.00
2022-11-07T19:50:37.167Z,97.98
2022-11-07T19:54:39.054Z,98.09
2022-11-07T19:58:41.770Z,97.73
2022-11-07T20:02:47.255Z,98.03
2022-11-07T20:06:50.358Z,97.43
2022-11-07T20:10:52.005Z,97.64
2022-11-07T20:14:54.097Z,97.26
2022-11-07T20:18:55.828Z,97.13
2022-11-07T20:22:57.535Z,97.20
2022-11-07T20:26:59.250Z,96.64
2022-11-07T20:31:01.194Z,96.70
2022-11-07T20:35:03.253Z,96.34
2022-11-07T20:39:05.323Z,96.16
2022-11-07T20:43:08.782Z,95.91
2022-11-07T20:47:12.167Z,96.14
2022-11-07T20:51:20.166Z,95.78
2022-11-07T20:55:21.885Z,95.45
2022-11-07T20:59:23.556Z,95.22
2022-11-07T21:03:25.290Z,95.02
2022-11-07T21:07:27.130Z,94.42
2022-11-07T21:11:30.574Z,94.57
2022-11-07T21:15:32.247Z,94.34
2022-11-07T21:19:33.983Z,94.34
2022-11-07T21:23:37.289Z,94.33
2022-11-07T21:27:38.954Z,94.40
2022-11-07T21:31:40.960Z,94.29
2022-11-07T21:35:42.772Z,94.06
2022-11-07T21:39:44.588Z,94.02
2022-11-07T21:43:46.771Z,93.97
2022-11-07T21:47:48.432Z,93.99
2022-11-07T21:51:51.175Z,94.19
2022-11-07T21:55:52.857Z,94.04
2022-11-07T21:59:54.654Z,93.61
2022-11-07T22:04:06.957Z,93.80
2022-11-07T22:08:10.080Z,93.91
2022-11-07T22:12:11.842Z,94.17
2022-11-07T22:16:16.647Z,94.29
2022-11-07T22:20:18.363Z,94.18
2022-11-07T22:24:26.433Z,94.02
2022-11-07T22:28:30.811Z,94.18
2022-11-07T22:32:32.499Z,94.21
2022-11-07T22:36:34.219Z,93.72
2022-11-07T22:40:35.978Z,93.65
2022-11-07T22:44:37.681Z,93.72
2022-11-07T22:48:40.441Z,93.86
2022-11-07T22:52:42.158Z,93.82
2022-11-07T22:56:43.833Z,93.77
2022-11-07T23:00:45.728Z,93.74
2022-11-07T23:04:47.400Z,93.68
2022-11-07T23:08:50.075Z,93.20
2022-11-07T23:12:51.754Z,93.53
2022-11-07T23:16:57.823Z,93.42
2022-11-07T23:21:10.235Z,93.40
2022-11-07T23:25:11.921Z,93.52
2022-11-07T23:29:15.949Z,93.15
2022-11-07T23:33:17.771Z,93.43
2022-11-07T23:37:19.451Z,93.72
2022-11-07T23:41:21.111Z,93.71
2022-11-07T23:45:41.450Z,93.51
2022-11-07T23:50:01.558Z,93.93
2022-11-07T23:54:22.482Z,93.82
2022-11-07T23:58:42.635Z,93.99
